createdAt,value
2023-03-14T00:00:14.255Z,79.77
2023-03-14T00:02:42.012Z,79.34
2023-03-14T00:05:10.207Z,79.64
2023-03-14T00:07:39.137Z,80.04
2023-03-14T00:10:09.539Z,80.99
2023-03-14T00:12:37.109Z,81.02
2023-03-14T00:15:05.628Z,80.43
2023-03-14T00:17:32.927Z,80.64
2023-03-14T00:20:05.498Z,81.82
2023-03-14T00:22:33.473Z,80.78
2023-03-14T00:25:00.544Z,79.53
2023-03-14T00:27:28.656Z,81.57
2023-03-14T00:29:55.622Z,80.59
2023-03-14T00:32:23.908Z,81.32
2023-03-14T00:34:51.044Z,80.52
2023-03-14T00:37:18.100Z,77.76
2023-03-14T00:39:45.149Z,77.84
2023-03-14T00:42:12.275Z,77.40
2023-03-14T00:44:39.436Z,77.41
2023-03-14T00:47:07.924Z,77.31
2023-03-14T00:49:35.128Z,77.17
2023-03-14T00:52:03.140Z,76.98
2023-03-14T00:54:30.246Z,76.42
2023-03-14T00:56:57.214Z,77.48
2023-03-14T00:59:24.187Z,76.13
2023-03-14T01:01:51.226Z,74.41
2023-03-14T01:04:18.395Z,75.19
2023-03-14T01:06:47.538Z,75.34
2023-03-14T01:09:33.465Z,74.60
2023-03-14T01:12:18.964Z,76.40
2023-03-14T01:15:01.603Z,76.05
2023-03-14T01:17:51.515Z,74.90
2023-03-14T01:20:43.581Z,74.83
2023-03-14T01:23:10.477Z,74.86
2023-03-14T01:25:42.531Z,74.43
2023-03-14T01:28:09.510Z,73.61
2023-03-14T01:30:36.497Z,73.59
2023-03-14T01:33:03.481Z,73.94
2023-03-14T01:35:30.766Z,73.64
2023-03-14T01:37:57.731Z,74.09
2023-03-14T01:40:25.061Z,73.70
2023-03-14T01:42:59.736Z,73.56
2023-03-14T01:46:04.219Z,73.76
2023-03-14T01:48:40.141Z,74.09
2023-03-14T01:51:12.851Z,73.41
2023-03-14T01:53:41.539Z,73.02
2023-03-14T01:56:10.748Z,72.38
2023-03-14T01:58:40.630Z,72.19
2023-03-14T02:01:10.244Z,72.55
2023-03-14T02:03:46.943Z,71.99
2023-03-14T02:06:18.840Z,72.23
2023-03-14T02:09:07.654Z,70.98
2023-03-14T02:11:51.059Z,71.10
2023-03-14T02:14:45.873Z,71.07
2023-03-14T02:17:32.398Z,69.87
2023-03-14T02:20:22.336Z,69.79
2023-03-14T02:23:08.242Z,69.57
2023-03-14T02:25:57.344Z,69.25
2023-03-14T02:28:24.891Z,69.02
2023-03-14T02:30:51.870Z,69.76
2023-03-14T02:33:21.653Z,70.88
2023-03-14T02:36:01.138Z,71.36
2023-03-14T02:38:58.049Z,72.57
2023-03-14T02:41:25.158Z,72.90
2023-03-14T02:43:52.182Z,73.25
2023-03-14T02:46:21.471Z,73.26
2023-03-14T02:48:58.193Z,73.09
2023-03-14T02:51:27.376Z,73.92
2023-03-14T02:53:54.439Z,73.72
2023-03-14T02:56:21.472Z,74.43
2023-03-14T02:58:48.523Z,76.98
2023-03-14T03:01:15.603Z,77.46
2023-03-14T03:03:42.801Z,77.88
2023-03-14T03:06:09.993Z,77.61
2023-03-14T03:08:37.414Z,76.83
2023-03-14T03:11:05.305Z,76.74
2023-03-14T03:13:32.329Z,76.81
2023-03-14T03:15:59.285Z,77.07
2023-03-14T03:18:26.751Z,78.28
2023-03-14T03:20:54.402Z,78.34
2023-03-14T03:23:21.461Z,79.61
2023-03-14T03:25:52.725Z,81.28
2023-03-14T03:28:20.787Z,81.51
2023-03-14T03:30:48.089Z,81.31
2023-03-14T03:33:15.976Z,82.75
2023-03-14T03:35:47.474Z,83.96
2023-03-14T03:38:16.497Z,82.90
2023-03-14T03:40:44.037Z,82.84
2023-03-14T03:43:11.265Z,85.00
2023-03-14T03:45:38.186Z,84.56
2023-03-14T03:48:05.641Z,84.16
2023-03-14T03:50:32.597Z,84.35
2023-03-14T03:52:59.659Z,83.69
2023-03-14T03:55:27.603Z,81.10
2023-03-14T03:57:56.190Z,79.35
2023-03-14T04:00:24.857Z,77.07
2023-03-14T04:02:51.981Z,77.46
2023-03-14T04:05:19.270Z,77.59
2023-03-14T04:07:46.340Z,76.28
2023-03-14T04:10:13.382Z,76.69
2023-03-14T04:12:40.435Z,76.58
2023-03-14T04:15:08.183Z,76.03
2023-03-14T04:17:35.358Z,75.67
2023-03-14T04:20:02.704Z,75.25
2023-03-14T04:22:29.751Z,75.45
2023-03-14T04:24:56.827Z,74.64
2023-03-14T04:27:23.949Z,75.27
2023-03-14T04:29:51.086Z,75.40
2023-03-14T04:32:18.170Z,77.14
2023-03-14T04:34:45.183Z,77.65
2023-03-14T04:37:13.273Z,77.94
2023-03-14T04:39:44.040Z,79.01
2023-03-14T04:42:11.096Z,78.79
2023-03-14T04:44:51.595Z,79.01
2023-03-14T04:47:18.934Z,78.57
2023-03-14T04:49:46.568Z,78.31
2023-03-14T04:52:15.694Z,78.10
2023-03-14T04:54:42.679Z,80.46
2023-03-14T04:57:09.612Z,80.57
2023-03-14T04:59:36.619Z,81.19
2023-03-14T05:02:03.635Z,80.88
2023-03-14T05:04:34.105Z,80.55
2023-03-14T05:07:01.602Z,80.28
2023-03-14T05:09:28.831Z,80.34
2023-03-14T05:11:55.716Z,81.63
2023-03-14T05:14:22.825Z,82.58
2023-03-14T05:16:49.877Z,83.40
2023-03-14T05:19:16.875Z,83.51
2023-03-14T05:21:43.829Z,83.35
2023-03-14T05:24:10.774Z,83.51
2023-03-14T05:26:37.696Z,83.23
2023-03-14T05:29:04.636Z,82.86
2023-03-14T05:31:31.593Z,82.52
2023-03-14T05:33:58.800Z,82.29
2023-03-14T05:36:25.739Z,81.95
2023-03-14T05:38:52.705Z,81.74
2023-03-14T05:41:19.594Z,81.28
2023-03-14T05:43:46.552Z,80.67
2023-03-14T05:46:13.502Z,79.63
2023-03-14T05:48:40.535Z,79.49
2023-03-14T05:51:07.889Z,78.67
2023-03-14T05:53:34.818Z,77.74
2023-03-14T05:56:01.714Z,76.77
2023-03-14T05:58:28.741Z,76.32
2023-03-14T06:00:55.672Z,75.37
2023-03-14T06:03:22.663Z,75.14
2023-03-14T06:05:53.269Z,74.38
2023-03-14T06:08:20.180Z,74.58
2023-03-14T06:10:47.142Z,74.32
2023-03-14T06:13:14.276Z,74.04
2023-03-14T06:15:41.199Z,73.17
2023-03-14T06:18:08.317Z,73.45
2023-03-14T06:20:40.359Z,72.85
2023-03-14T06:23:09.917Z,71.77
2023-03-14T06:25:37.454Z,70.99
2023-03-14T06:28:05.791Z,69.87
2023-03-14T06:30:32.803Z,69.15
2023-03-14T06:33:00.078Z,69.30
2023-03-14T06:35:27.133Z,68.60
2023-03-14T06:37:54.077Z,67.68
2023-03-14T06:40:21.118Z,66.56
2023-03-14T06:42:48.587Z,66.89
2023-03-14T06:45:15.878Z,65.85
2023-03-14T06:47:42.985Z,65.88
2023-03-14T06:50:10.898Z,66.14
2023-03-14T06:52:38.648Z,65.44
2023-03-14T06:55:06.105Z,64.92
2023-03-14T06:57:33.025Z,64.65
2023-03-14T06:59:59.938Z,64.40
2023-03-14T07:02:39.875Z,63.74
2023-03-14T07:05:11.471Z,63.42
2023-03-14T07:07:38.739Z,64.89
2023-03-14T07:10:06.264Z,62.98
2023-03-14T07:12:33.150Z,63.58
2023-03-14T07:15:11.926Z,63.17
2023-03-14T07:17:44.136Z,62.20
2023-03-14T07:20:11.760Z,61.72
2023-03-14T07:22:38.737Z,61.90
2023-03-14T07:25:06.610Z,60.73
2023-03-14T07:27:33.560Z,60.38
2023-03-14T07:30:00.534Z,60.66
2023-03-14T07:32:27.468Z,61.01
2023-03-14T07:34:57.702Z,60.47
2023-03-14T07:37:24.671Z,59.20
2023-03-14T07:39:51.651Z,58.30
2023-03-14T07:42:18.534Z,58.71
2023-03-14T07:44:46.463Z,59.65
2023-03-14T07:47:13.413Z,57.85
2023-03-14T07:49:40.345Z,57.65
2023-03-14T07:52:07.362Z,57.84
2023-03-14T07:54:34.299Z,55.84
2023-03-14T07:57:01.951Z,56.10
2023-03-14T07:59:29.257Z,55.43
2023-03-14T08:01:56.276Z,55.12
2023-03-14T08:04:23.165Z,53.95
2023-03-14T08:06:50.166Z,53.98
2023-03-14T08:09:17.144Z,54.89
2023-03-14T08:11:44.049Z,53.92
2023-03-14T08:14:12.329Z,54.99
2023-03-14T08:16:39.296Z,52.95
2023-03-14T08:19:06.223Z,54.05
2023-03-14T08:21:33.156Z,53.28
2023-03-14T08:24:00.102Z,53.73
2023-03-14T08:26:29.832Z,52.56
2023-03-14T08:28:56.825Z,52.31
2023-03-14T08:31:24.020Z,51.99
2023-03-14T08:33:53.322Z,52.94
2023-03-14T08:36:23.814Z,52.25
2023-03-14T08:38:51.143Z,52.24
2023-03-14T08:41:18.109Z,51.35
2023-03-14T08:43:45.011Z,51.18
2023-03-14T08:46:12.037Z,52.16
2023-03-14T08:48:38.981Z,52.66
2023-03-14T08:51:12.007Z,52.03
2023-03-14T08:53:38.935Z,51.74
2023-03-14T08:56:07.375Z,52.34
2023-03-14T08:58:34.605Z,51.33
2023-03-14T09:01:01.626Z,52.43
2023-03-14T09:03:29.662Z,52.29
2023-03-14T09:05:56.587Z,52.03
2023-03-14T09:08:23.527Z,52.65
2023-03-14T09:10:50.434Z,51.86
2023-03-14T09:13:17.353Z,51.42
2023-03-14T09:15:44.387Z,52.33
2023-03-14T09:18:11.281Z,53.48
2023-03-14T09:20:38.222Z,52.76
2023-03-14T09:23:05.179Z,52.38
2023-03-14T09:25:32.151Z,52.79
2023-03-14T09:27:59.036Z,52.58
2023-03-14T09:30:26.000Z,53.16
2023-03-14T09:32:53.250Z,52.82
2023-03-14T09:35:20.433Z,52.77
2023-03-14T09:37:47.525Z,53.50
2023-03-14T09:40:17.796Z,52.88
2023-03-14T09:42:44.698Z,52.77
2023-03-14T09:45:20.855Z,53.98
2023-03-14T09:47:58.546Z,52.23
2023-03-14T09:50:31.154Z,52.47
2023-03-14T09:53:03.484Z,51.59
2023-03-14T09:55:30.506Z,52.65
2023-03-14T09:58:04.988Z,50.91
2023-03-14T10:00:33.123Z,50.99
2023-03-14T10:03:15.166Z,50.40
2023-03-14T10:05:43.154Z,51.18
2023-03-14T10:08:14.817Z,50.09
2023-03-14T10:10:42.313Z,50.99
2023-03-14T10:13:29.145Z,49.86
2023-03-14T10:16:05.390Z,50.75
2023-03-14T10:18:35.810Z,50.47
2023-03-14T10:21:17.111Z,50.81
2023-03-14T10:23:44.171Z,49.98
2023-03-14T10:26:16.949Z,50.83
2023-03-14T10:28:54.008Z,51.05
2023-03-14T10:31:27.016Z,51.87
2023-03-14T10:34:06.341Z,51.99
2023-03-14T10:36:35.931Z,52.21
2023-03-14T10:39:24.088Z,51.58
2023-03-14T10:42:00.016Z,52.15
2023-03-14T10:44:27.378Z,52.55
2023-03-14T10:47:00.636Z,53.48
2023-03-14T10:49:36.063Z,53.28
2023-03-14T10:52:16.906Z,53.35
2023-03-14T10:54:48.773Z,55.09
2023-03-14T10:57:15.778Z,54.94
2023-03-14T10:59:45.645Z,55.06
2023-03-14T11:02:24.127Z,55.02
2023-03-14T11:05:16.540Z,54.35
2023-03-14T11:07:46.265Z,54.34
2023-03-14T11:10:20.295Z,54.60
2023-03-14T11:13:08.182Z,54.65
2023-03-14T11:16:10.592Z,54.54
2023-03-14T11:19:14.657Z,55.73
2023-03-14T11:21:58.105Z,56.27
2023-03-14T11:24:37.290Z,56.98
2023-03-14T11:27:10.094Z,56.04
2023-03-14T11:29:56.899Z,56.19
2023-03-14T11:32:43.115Z,57.20
2023-03-14T11:35:24.646Z,58.11
2023-03-14T11:37:56.656Z,58.83
2023-03-14T11:40:29.091Z,59.71
2023-03-14T11:43:10.654Z,60.36
2023-03-14T11:45:42.018Z,59.58
2023-03-14T11:48:20.150Z,60.82
2023-03-14T11:50:53.153Z,60.34
2023-03-14T11:53:45.657Z,61.56
2023-03-14T11:56:31.274Z,60.99
2023-03-14T11:59:07.520Z,60.87
2023-03-14T12:01:50.769Z,60.43
2023-03-14T12:04:32.745Z,59.64
2023-03-14T12:07:04.624Z,59.55
2023-03-14T12:09:32.597Z,59.75
2023-03-14T12:12:03.842Z,60.06
2023-03-14T12:14:37.027Z,58.76
2023-03-14T12:17:21.247Z,59.18
2023-03-14T12:20:00.068Z,60.09
2023-03-14T12:22:36.792Z,59.95
2023-03-14T12:25:25.699Z,59.88
2023-03-14T12:27:55.710Z,59.19
2023-03-14T12:30:38.484Z,58.99
2023-03-14T12:33:14.014Z,58.35
2023-03-14T12:35:46.459Z,59.75
2023-03-14T12:38:25.837Z,60.26
2023-03-14T12:41:15.485Z,59.83
2023-03-14T12:43:43.128Z,59.66
2023-03-14T12:46:18.868Z,60.07
2023-03-14T12:49:09.399Z,59.72
2023-03-14T12:51:38.106Z,60.67
2023-03-14T12:54:17.668Z,61.47
2023-03-14T12:56:50.407Z,61.32
2023-03-14T12:59:28.133Z,61.24
2023-03-14T13:02:07.162Z,62.61
2023-03-14T13:04:47.194Z,62.30
2023-03-14T13:07:30.921Z,62.80
2023-03-14T13:10:13.142Z,63.74
2023-03-14T13:12:46.536Z,63.98
2023-03-14T13:15:30.501Z,63.39
2023-03-14T13:18:11.103Z,64.44
2023-03-14T13:20:42.997Z,65.61
2023-03-14T13:23:28.452Z,65.89
2023-03-14T13:25:56.482Z,65.94
2023-03-14T13:28:24.157Z,67.70
2023-03-14T13:30:56.091Z,67.31
2023-03-14T13:33:25.009Z,67.43
2023-03-14T13:36:04.971Z,67.83
2023-03-14T13:38:37.203Z,67.96
2023-03-14T13:41:09.238Z,68.47
2023-03-14T13:43:45.726Z,69.05
2023-03-14T13:46:23.670Z,69.54
2023-03-14T13:48:54.674Z,69.14
2023-03-14T13:51:22.511Z,69.81
2023-03-14T13:53:54.779Z,70.34
2023-03-14T13:56:24.349Z,71.31
2023-03-14T13:58:51.751Z,70.88
2023-03-14T14:01:35.283Z,70.98
2023-03-14T14:04:15.453Z,71.21
2023-03-14T14:06:52.678Z,72.81
2023-03-14T14:09:25.396Z,72.32
2023-03-14T14:12:21.472Z,73.20
2023-03-14T14:14:59.201Z,73.56
2023-03-14T14:17:35.877Z,73.56
2023-03-14T14:20:06.818Z,74.12
2023-03-14T14:22:34.303Z,74.71
2023-03-14T14:25:03.094Z,75.32
2023-03-14T14:27:42.301Z,75.13
2023-03-14T14:30:18.269Z,75.24
2023-03-14T14:32:49.540Z,75.53
2023-03-14T14:35:33.814Z,75.23
2023-03-14T14:38:01.012Z,75.69
2023-03-14T14:40:32.773Z,75.85
2023-03-14T14:43:07.048Z,76.19
2023-03-14T14:45:36.305Z,75.54
2023-03-14T14:48:03.279Z,76.22
2023-03-14T14:50:40.098Z,76.03
2023-03-14T14:53:28.766Z,75.70
2023-03-14T14:56:04.803Z,75.66
2023-03-14T14:58:39.502Z,76.29
2023-03-14T15:01:09.260Z,76.00
2023-03-14T15:03:36.954Z,75.89
2023-03-14T15:06:05.230Z,76.54
2023-03-14T15:08:32.674Z,76.33
2023-03-14T15:11:04.764Z,75.96
2023-03-14T15:13:31.920Z,75.77
2023-03-14T15:15:59.143Z,76.24
2023-03-14T15:18:31.010Z,76.16
2023-03-14T15:20:58.199Z,76.56
2023-03-14T15:23:26.178Z,76.43
2023-03-14T15:25:56.234Z,76.84
2023-03-14T15:28:29.027Z,77.17
2023-03-14T15:30:58.465Z,76.97
2023-03-14T15:33:27.188Z,76.44
2023-03-14T15:35:54.207Z,77.88
2023-03-14T15:38:24.177Z,77.25
2023-03-14T15:40:52.465Z,77.30
2023-03-14T15:43:20.373Z,77.81
2023-03-14T15:45:47.780Z,77.53
2023-03-14T15:48:22.996Z,77.47
2023-03-14T15:50:49.938Z,77.59
2023-03-14T15:53:16.943Z,77.80
2023-03-14T15:55:44.026Z,78.27
2023-03-14T15:58:21.459Z,80.82
2023-03-14T16:00:50.190Z,82.90
2023-03-14T16:03:17.402Z,82.67
2023-03-14T16:05:44.615Z,83.41
2023-03-14T16:08:11.594Z,83.62
2023-03-14T16:10:39.859Z,84.29
2023-03-14T16:13:06.850Z,84.90
2023-03-14T16:15:33.777Z,84.83
2023-03-14T16:18:02.439Z,85.06
2023-03-14T16:20:47.218Z,84.57
2023-03-14T16:23:16.743Z,84.07
2023-03-14T16:25:45.749Z,83.64
2023-03-14T16:28:12.689Z,83.93
2023-03-14T16:30:39.767Z,84.31
2023-03-14T16:33:12.410Z,83.93
2023-03-14T16:35:43.449Z,84.35
2023-03-14T16:38:10.794Z,84.27
2023-03-14T16:40:38.455Z,84.71
2023-03-14T16:43:15.677Z,84.86
2023-03-14T16:45:43.547Z,84.65
2023-03-14T16:48:10.554Z,84.76
2023-03-14T16:50:39.869Z,84.60
2023-03-14T16:53:09.693Z,84.98
2023-03-14T16:55:44.476Z,85.23
2023-03-14T16:58:11.740Z,84.91
2023-03-14T17:00:39.473Z,85.02
2023-03-14T17:03:06.921Z,84.90
2023-03-14T17:05:34.457Z,85.16
2023-03-14T17:08:01.656Z,84.53
2023-03-14T17:10:28.652Z,84.24
2023-03-14T17:12:55.592Z,84.26
2023-03-14T17:15:22.537Z,84.59
2023-03-14T17:17:49.568Z,84.39
2023-03-14T17:20:17.835Z,84.98
2023-03-14T17:23:38.531Z,84.65
2023-03-14T17:26:06.131Z,84.91
2023-03-14T17:28:33.718Z,84.70
2023-03-14T17:31:13.263Z,84.31
2023-03-14T17:33:40.849Z,84.24
2023-03-14T17:36:08.797Z,84.98
2023-03-14T17:38:37.085Z,84.99
2023-03-14T17:41:05.179Z,84.97
2023-03-14T17:43:33.968Z,84.81
2023-03-14T17:46:07.112Z,85.12
2023-03-14T17:48:34.211Z,85.15
2023-03-14T17:51:02.350Z,85.65
2023-03-14T17:53:30.304Z,85.84
2023-03-14T17:55:58.355Z,85.83
2023-03-14T17:58:25.994Z,86.86
2023-03-14T18:00:53.026Z,86.69
2023-03-14T18:03:22.776Z,87.38
2023-03-14T18:05:49.834Z,87.38
2023-03-14T18:08:16.902Z,87.99
2023-03-14T18:10:44.005Z,88.41
2023-03-14T18:13:11.034Z,88.71
2023-03-14T18:15:38.951Z,88.70
2023-03-14T18:18:06.006Z,89.48
2023-03-14T18:20:33.007Z,90.27
2023-03-14T18:23:01.877Z,89.66
2023-03-14T18:25:31.586Z,89.81
2023-03-14T18:27:58.688Z,90.15
2023-03-14T18:30:26.817Z,90.54
2023-03-14T18:32:53.845Z,91.61
2023-03-14T18:35:20.823Z,91.26
2023-03-14T18:37:47.751Z,91.87
2023-03-14T18:40:17.165Z,92.05
2023-03-14T18:42:44.285Z,92.89
2023-03-14T18:45:11.895Z,93.11
2023-03-14T18:47:38.992Z,93.08
2023-03-14T18:50:09.318Z,92.69
2023-03-14T18:52:36.286Z,91.73
2023-03-14T18:55:03.894Z,91.14
2023-03-14T18:57:30.832Z,91.01
2023-03-14T18:59:58.648Z,90.63
2023-03-14T19:02:26.886Z,89.47
2023-03-14T19:04:54.006Z,89.92
2023-03-14T19:07:23.748Z,89.36
2023-03-14T19:09:51.007Z,89.43
2023-03-14T19:12:19.106Z,89.14
2023-03-14T19:14:46.082Z,88.11
2023-03-14T19:17:14.151Z,88.21
2023-03-14T19:19:41.639Z,88.03
2023-03-14T19:22:08.838Z,87.44
2023-03-14T19:24:35.894Z,87.93
2023-03-14T19:27:02.967Z,88.12
2023-03-14T19:29:30.270Z,87.59
2023-03-14T19:31:57.579Z,86.89
2023-03-14T19:34:24.733Z,86.78
2023-03-14T19:36:52.391Z,86.83
2023-03-14T19:39:19.864Z,86.99
2023-03-14T19:41:47.035Z,86.47
2023-03-14T19:44:15.203Z,86.42
2023-03-14T19:46:42.848Z,86.53
2023-03-14T19:49:10.934Z,86.75
2023-03-14T19:51:38.092Z,86.69
2023-03-14T19:54:05.566Z,87.02
2023-03-14T19:56:35.718Z,86.19
2023-03-14T19:59:03.533Z,86.15
2023-03-14T20:01:32.274Z,85.52
2023-03-14T20:03:59.609Z,85.16
2023-03-14T20:06:26.597Z,85.56
2023-03-14T20:08:53.735Z,85.26
2023-03-14T20:11:20.672Z,85.35
2023-03-14T20:13:47.795Z,85.04
2023-03-14T20:16:15.002Z,85.27
2023-03-14T20:18:42.405Z,84.85
2023-03-14T20:21:13.054Z,84.86
2023-03-14T20:23:43.939Z,84.24
2023-03-14T20:26:11.203Z,84.01
2023-03-14T20:28:38.699Z,83.68
2023-03-14T20:31:08.529Z,83.69
2023-03-14T20:33:35.937Z,82.92
2023-03-14T20:36:03.110Z,82.65
2023-03-14T20:38:31.474Z,82.30
2023-03-14T20:40:59.726Z,81.89
2023-03-14T20:43:28.019Z,81.57
2023-03-14T20:45:57.095Z,81.56
2023-03-14T20:48:25.619Z,81.34
2023-03-14T20:50:53.345Z,81.02
2023-03-14T20:53:21.658Z,80.77
2023-03-14T20:55:49.476Z,81.41
2023-03-14T20:58:19.711Z,81.21
2023-03-14T21:00:53.602Z,80.90
2023-03-14T21:03:20.995Z,80.73
2023-03-14T21:05:48.985Z,81.24
2023-03-14T21:08:19.655Z,80.45
2023-03-14T21:10:48.911Z,80.69
2023-03-14T21:13:17.131Z,80.85
2023-03-14T21:15:45.883Z,80.68
2023-03-14T21:18:13.727Z,81.09
2023-03-14T21:20:42.759Z,80.45
2023-03-14T21:23:12.253Z,80.53
2023-03-14T21:25:42.511Z,81.07
2023-03-14T21:28:10.277Z,81.07
2023-03-14T21:30:37.629Z,81.19
2023-03-14T21:33:04.805Z,80.51
2023-03-14T21:35:31.757Z,80.65
2023-03-14T21:37:59.465Z,80.34
2023-03-14T21:40:27.227Z,81.04
2023-03-14T21:42:55.736Z,80.44
2023-03-14T21:45:27.362Z,80.79
2023-03-14T21:47:58.769Z,80.45
2023-03-14T21:50:27.100Z,80.06
2023-03-14T21:52:57.110Z,80.44
2023-03-14T21:55:26.062Z,80.71
2023-03-14T21:57:55.164Z,80.15
2023-03-14T22:00:26.601Z,79.89
2023-03-14T22:03:11.725Z,80.74
2023-03-14T22:05:42.791Z,80.27
2023-03-14T22:08:09.982Z,80.43
2023-03-14T22:10:36.813Z,80.52
2023-03-14T22:13:03.784Z,80.24
2023-03-14T22:15:30.677Z,80.09
2023-03-14T22:17:57.551Z,80.11
2023-03-14T22:20:24.562Z,79.65
2023-03-14T22:22:51.430Z,80.34
2023-03-14T22:25:18.287Z,79.99
2023-03-14T22:27:45.462Z,80.22
2023-03-14T22:30:12.831Z,80.53
2023-03-14T22:32:39.783Z,80.61
2023-03-14T22:35:06.880Z,80.72
2023-03-14T22:37:33.899Z,80.26
2023-03-14T22:40:00.836Z,80.15
2023-03-14T22:42:27.712Z,80.24
2023-03-14T22:44:54.623Z,80.82
2023-03-14T22:47:21.728Z,80.92
2023-03-14T22:49:48.668Z,80.56
2023-03-14T22:52:16.494Z,80.55
2023-03-14T22:54:43.416Z,77.24
2023-03-14T22:57:10.710Z,79.10
2023-03-14T22:59:37.815Z,80.35
2023-03-14T23:02:04.836Z,81.90
2023-03-14T23:04:32.202Z,83.65
2023-03-14T23:06:59.551Z,84.25
2023-03-14T23:09:26.517Z,85.07
2023-03-14T23:11:54.383Z,85.66
2023-03-14T23:14:23.711Z,87.76
2023-03-14T23:16:51.884Z,86.67
2023-03-14T23:19:25.992Z,86.51
2023-03-14T23:21:54.504Z,88.52
2023-03-14T23:24:23.726Z,90.90
2023-03-14T23:26:51.858Z,92.09
2023-03-14T23:29:18.990Z,92.63
2023-03-14T23:31:46.027Z,93.59
2023-03-14T23:34:12.962Z,92.96
2023-03-14T23:36:39.923Z,92.35
2023-03-14T23:39:08.960Z,90.74
2023-03-14T23:41:35.931Z,90.55
2023-03-14T23:44:03.099Z,90.69
2023-03-14T23:46:31.835Z,90.56
2023-03-14T23:48:58.835Z,88.90
2023-03-14T23:51:25.864Z,89.43
2023-03-14T23:53:53.005Z,88.32
2023-03-14T23:56:20.223Z,89.02
2023-03-14T23:58:47.245Z,89.27
